• Join FlightAware (Why Join?)
  • Login
  • US Flag 
05:25AM EDT


 

Airport Tracker/Info


-or-


 

Live Flight TrackerFlight Track Log ✈ TAM3221 ✈ 24-Oct-2013 ✈ SBCF / CNF - SBSP / CGH

Flight Track Log - Related Links

Times and Time Zones

All times are in EDT time to prevent confusion due to time zone crossing. See the TAM3221 flight status page for this flight to view local times or setup timezone preferences in your user account.

Time Position Orientation Groundspeed Altitude Reporting Facility
EDT Latitude Longitude Course Direction KTS MPH feet Rate Location/Type
06:47PM -19.6730 -43.9470 164° South 169 194 4,700  Level FlightAware
06:47PM -19.6900 -43.9290 135° Southeast 184 212 5,600 1,740 Climbing FlightAware
06:48PM -19.6780 -43.9100 56° Northeast 207 238 6,300 1,980 Climbing FlightAware
06:48PM -19.6420 -43.9130 356° North 225 259 7,600 2,280 Climbing FlightAware
06:49PM -19.6200 -43.9170 350° North 244 281 8,400 2,400 Climbing FlightAware
06:49PM -19.5970 -43.9330 327° Northwest 263 303 9,400 2,820 Climbing FlightAware
06:50PM -19.5830 -43.9710 291° West 276 318 11,000 2,160 Climbing FlightAware
06:50PM -19.5660 -44.0360 286° West 339 390 12,100 1,440 Climbing FlightAware
06:51PM -19.5800 -44.0740 249° West 368 423 12,700 1,560 Climbing FlightAware
06:51PM -19.6310 -44.1290 225° Southwest 398 458 13,800 1,740 Climbing FlightAware
06:52PM -19.6770 -44.1770 224° Southwest 418 481 14,900 2,160 Climbing FlightAware
06:53PM -19.7430 -44.2480 225° Southwest 425 489 16,800 2,220 Climbing FlightAware
06:53PM -19.7720 -44.2830 229° Southwest 431 496 17,600 1,740 Climbing FlightAware
06:54PM -19.8410 -44.3780 232° Southwest 450 518 19,000 1,560 Climbing FlightAware
06:55PM -19.9140 -44.4770 232° Southwest 468 539 20,500 1,620 Climbing FlightAware
06:56PM -19.9830 -44.5690 231° Southwest 474 545 22,000 1,860 Climbing FlightAware
06:57PM -20.0540 -44.6660 232° Southwest 472 543 23,700 1,500 Climbing FlightAware
06:58PM -20.1370 -44.7780 232° Southwest 483 556 24,800 1,080 Climbing FlightAware
06:59PM -20.2160 -44.8840 232° Southwest 490 564 25,900 1,500 Climbing FlightAware
06:59PM -20.2520 -44.9340 232° Southwest 480 552 26,900 2,880 Climbing FlightAware
07:00PM -20.3220 -45.0300 232° Southwest 449 517 29,800 2,460 Climbing FlightAware
07:01PM -20.3740 -45.1000 232° Southwest 454 522 30,800 1,260 Climbing FlightAware
07:02PM -20.4440 -45.1960 232° Southwest 467 537 31,800 600 Climbing FlightAware
07:03PM -20.5290 -45.3120 232° Southwest 474 545 32,000 60 Climbing FlightAware
07:04PM -20.5970 -45.4060 232° Southwest 480 552 32,000  Level FlightAware
07:04PM -20.6140 -45.4290 232° Southwest 480 552 32,000  Level FlightAware
07:05PM -20.7030 -45.5520 232° Southwest 451 519 32,000  Level FlightAware
07:07PM -20.8740 -45.7870 232° Southwest 481 554 32,000  Level FlightAware
07:08PM -20.9330 -45.8690 232° Southwest 479 551 32,000  Level FlightAware
07:08PM -20.9750 -45.9280 233° Southwest 479 551 32,000  Level FlightAware
07:09PM -21.0120 -45.9780 232° Southwest 478 550 32,000  Level FlightAware
07:09PM -21.0760 -46.0680 233° Southwest 478 550 32,000  Level FlightAware
07:10PM -21.1460 -46.1640 232° Southwest 475 547 32,000  Level FlightAware
07:11PM -21.2110 -46.2550 233° Southwest 475 547 32,000  Level FlightAware
07:12PM -21.3030 -46.3840 233° Southwest 473 544 32,000  Level FlightAware
07:13PM -21.3520 -46.4520 232° Southwest 472 543 32,000  Level FlightAware
07:14PM -21.4130 -46.5370 232° Southwest 471 542 32,000  Level FlightAware
07:14PM -21.4720 -46.6200 233° Southwest 470 541 32,000  Level FlightAware
07:15PM -21.5470 -46.7200 231° Southwest 467 537 32,000  Level FlightAware
07:16PM -21.5910 -46.7510 213° Southwest 465 535 32,000  Level FlightAware
07:16PM -21.6770 -46.8090 212° Southwest 446 513 32,000  Level FlightAware
07:17PM -21.7430 -46.8520 211° Southwest 445 512 32,000  Level FlightAware
07:18PM -21.8060 -46.8950 212° Southwest 440 506 32,000  Level FlightAware
07:18PM -21.8750 -46.9410 212° Southwest 440 506 32,000  Level FlightAware
07:19PM -21.9620 -46.9990 212° Southwest 438 504 32,000  Level FlightAware
07:20PM -22.0550 -47.0610 212° Southwest 443 510 32,000 -300 Level FlightAware
07:21PM -22.1660 -47.1350 212° Southwest 448 516 31,500 -720 Descending FlightAware
07:22PM -22.2140 -47.1670 212° Southwest 448 516 31,000 -1,080 Descending FlightAware
07:22PM -22.3070 -47.2290 212° Southwest 451 519 30,100 -1,020 Descending FlightAware
07:23PM -22.3870 -47.2840 212° Southwest 450 518 29,400 -1,020 Descending FlightAware
07:24PM -22.4810 -47.3470 212° Southwest 437 503 28,500 -900 Descending FlightAware
07:25PM -22.5600 -47.4000 212° Southwest 391 450 27,900 -1,020 Descending FlightAware
07:25PM -22.6040 -47.4300 212° Southwest 363 418 27,200 -1,920 Descending FlightAware
07:26PM -22.6530 -47.4630 212° Southwest 354 407 25,800 -2,700 Descending FlightAware
07:27PM -22.7270 -47.5130 212° Southwest 354 407 23,100 -2,400 Descending FlightAware
07:28PM -22.8000 -47.5520 206° Southwest 343 395 21,700 -1,560 Descending FlightAware
07:29PM -22.8660 -47.5080 148° Southeast 332 382 20,500 -1,440 Descending FlightAware
07:29PM -22.8980 -47.4750 136° Southeast 331 381 19,800 -1,860 Descending FlightAware
07:30PM -22.9560 -47.4200 139° Southeast 323 372 18,100 -2,100 Descending FlightAware
07:31PM -23.0210 -47.3590 139° Southeast 310 357 16,000 -2,160 Descending FlightAware
07:31PM -23.0600 -47.3240 140° Southeast 307 353 14,700 -1,980 Descending FlightAware
07:32PM -23.1110 -47.2760 139° Southeast 289 333 13,200 -1,860 Descending FlightAware
07:33PM -23.1370 -47.2510 139° Southeast 285 328 12,400 -1,680 Descending FlightAware
07:33PM -23.1650 -47.2250 140° Southeast 269 310 11,700 -1,740 Descending FlightAware
07:34PM -23.2160 -47.1770 139° Southeast 261 300 10,000 -1,680 Descending FlightAware
07:34PM -23.2340 -47.1610 141° Southeast 258 297 9,600 -1,200 Descending FlightAware
07:35PM -23.2570 -47.1400 140° Southeast 254 292 9,100 -1,080 Descending FlightAware
07:35PM -23.2750 -47.1230 139° Southeast 250 288 8,800 -1,080 Descending FlightAware
07:36PM -23.3000 -47.1000 140° Southeast 247 284 8,200 -780 Descending FlightAware
07:36PM -23.3370 -47.0790 152° Southeast 251 289 8,000 -420 Descending FlightAware
07:37PM -23.3680 -47.0640 156° South 234 269 7,800 -780 Descending FlightAware
07:37PM -23.3920 -47.0520 155° Southeast 235 270 7,300 -840 Descending FlightAware
07:38PM -23.4160 -47.0390 154° Southeast 226 260 7,100 -660 Descending FlightAware
07:38PM -23.4440 -47.0250 155° Southeast 219 252 6,700 -720 Descending FlightAware
07:39PM -23.4570 -47.0000 120° Southeast 206 237 6,400 -480 Descending FlightAware
07:39PM -23.4480 -46.9780 66° East 199 229 6,300 -360 Descending FlightAware
07:39PM -23.4420 -46.9550 74° East 193 222 6,100 -660 Descending FlightAware
07:40PM -23.4400 -46.9390 82° East 192 221 5,900 -420 Descending FlightAware
07:40PM -23.4370 -46.9270 75° East 192 221 5,900 -240 Level FlightAware
07:41PM -23.4380 -46.8910 92° East 184 212 5,700 -300 Descending FlightAware
07:41PM -23.4420 -46.8700 102° East 175 201 5,600 -360 Descending FlightAware
07:41PM -23.4500 -46.8450 109° East 174 200 5,400 -360 Descending FlightAware
07:42PM -23.4570 -46.8220 108° East 170 196 5,300 -120 Descending FlightAware
07:42PM -23.4630 -46.8020 108° East 170 196 5,300 -180 Level FlightAware
07:43PM -23.4690 -46.7840 110° East 168 193 5,200 -240 Descending FlightAware
07:43PM -23.4760 -46.7630 110° East 153 176 5,100 -240 Descending FlightAware
07:44PM -23.4890 -46.7520 142° Southeast 159 183 5,000 -300 Descending FlightAware
07:44PM -23.5050 -46.7410 148° Southeast 154 177 4,900 -600 Descending FlightAware
07:44PM -23.5160 -46.7330 146° Southeast 141 162 4,600 -780 Descending FlightAware
07:45PM -23.5310 -46.7230 149° Southeast 126 145 4,300 -660 Descending FlightAware
07:45PM -23.5440 -46.7140 148° Southeast 124 143 4,000 -660 Descending FlightAware
07:46PM -23.5590 -46.7030 146° Southeast 124 143 3,700 -600 Descending FlightAware
07:46PM -23.5700 -46.6950 146° Southeast 121 139 3,500 -600 Descending FlightAware
07:47PM -23.5840 -46.6860 149° Southeast 123 142 3,200 -660 Descending FlightAware
07:47PM -23.5940 -46.6790 147° Southeast 122 140 3,000 -600 Descending FlightAware
07:48PM -23.6130 -46.6660 148° Southeast 122 140 2,600 -540 Descending FlightAware
07:48PM -23.6170 -46.6630 146° Southeast 127 146 2,500 -540 Descending FlightAware
07:48PM -23.6260 -46.6570 149° Southeast 121 139 2,300 -300 Descending FlightAware
07:49PM -23.6360 -46.6500 147° Southeast 121 139 2,300  Level FlightAware
07:50PM -23.6300 -46.6550 323° Northwest 120 138 -2,160 Descending FlightAware
07:50PM -23.6370 -46.6450 127° Southeast 120 138  Level FlightAware
07:53PM -23.6267 -46.6554 317° Northwest  Level Estimated
07:54PM -23.6267 -46.6554 114° Southeast  Level Estimated
07:55PM -23.6267 -46.6554 114° Southeast  Level Estimated
07:56PM -23.6267 -46.6554 114° Southeast  Level Estimated
07:56PM -23.6300 -46.6580 114° Southeast  Level FlightAware
07:56PM -23.6300 -46.6590 270° West  Level FlightAware
07:59PM -23.6267 -46.6554 45° Northeast  Level Estimated
08:00PM -23.6267 -46.6554 114° Southeast  Level Estimated
08:01PM -23.6267 -46.6554 114° Southeast  Level Estimated
08:02PM -23.6267 -46.6554 114° Southeast  Level Estimated
08:03PM -23.6267 -46.6554 114° Southeast  Level Estimated
08:04PM -23.6267 -46.6554 114° Southeast  Level Estimated
08:05PM -23.6267 -46.6554 114° Southeast  Level Estimated
08:06PM -23.6267 -46.6554 114° Southeast  Level Estimated
08:07PM -23.6267 -46.6554 114° Southeast  Level Estimated